Time;durP1;ratioP1;P1;durP2;ratioP2;P2;SDS_P1;SDS_P2;PMS_P1;PMS_P2;Temp;Humidity;BMP_temperature;BMP_pressure;BME280_temperature;BME280_humidity;BME280_pressure;Samples;Min_cycle;Max_cycle;Signal;HPM_P1;HPM_P2
2023/05/18 00:01:09;;;;;;;2.75;1.80;;;25.80;48.10;;;;;;4973119;28;20030;-53
2023/05/18 00:03:35;;;;;;;3.15;1.92;;;25.80;48.30;;;;;;4976499;28;20039;-57
2023/05/18 00:06:05;;;;;;;2.78;1.63;;;25.70;48.50;;;;;;4972989;28;20039;-57
2023/05/18 00:08:35;;;;;;;2.67;1.70;;;25.80;48.30;;;;;;4977146;28;20041;-57
2023/05/18 00:11:01;;;;;;;3.00;1.83;;;25.90;47.90;;;;;;4974214;28;20046;-55
2023/05/18 00:13:27;;;;;;;3.35;1.90;;;25.90;48.10;;;;;;4978855;28;20063;-59
2023/05/18 00:15:53;;;;;;;3.63;1.98;;;25.90;48.20;;;;;;4980402;28;20030;-55
2023/05/18 00:18:22;;;;;;;4.85;2.08;;;25.70;48.10;;;;;;4976278;28;20089;-59
2023/05/18 00:21:00;;;;;;;2.72;1.88;;;25.80;48.60;;;;;;4980148;28;20413;-55
2023/05/18 00:23:30;;;;;;;2.78;1.60;;;25.90;48.10;;;;;;4982781;28;20030;-53
2023/05/18 00:25:57;;;;;;;3.20;2.08;;;25.90;48.10;;;;;;4977264;28;20596;-55
2023/05/18 00:28:22;;;;;;;3.00;1.80;;;25.80;48.20;;;;;;4973138;28;20393;-52
2023/05/18 00:30:48;;;;;;;3.90;2.00;;;25.80;48.00;;;;;;4973780;28;20261;-53
2023/05/18 00:33:13;;;;;;;3.08;1.73;;;25.90;48.10;;;;;;4971347;28;20026;-54
2023/05/18 00:35:39;;;;;;;4.65;1.88;;;25.90;47.90;;;;;;4972972;28;20057;-55
2023/05/18 00:38:04;;;;;;;4.07;2.10;;;25.90;48.40;;;;;;4974553;28;20133;-56
2023/05/18 00:40:30;;;;;;;3.92;2.28;;;25.80;48.10;;;;;;4969852;28;20030;-53
2023/05/18 00:42:55;;;;;;;5.63;2.22;;;25.80;48.10;;;;;;4981732;28;20037;-54
2023/05/18 00:45:21;;;;;;;4.40;1.75;;;25.90;47.80;;;;;;4976778;28;20038;-58
2023/05/18 00:47:47;;;;;;;4.82;1.85;;;25.90;48.60;;;;;;4978229;28;20789;-54
2023/05/18 00:50:13;;;;;;;2.58;2.03;;;25.80;48.20;;;;;;4980411;28;20650;-52
2023/05/18 00:52:39;;;;;;;3.95;1.70;;;25.80;48.10;;;;;;4980469;28;20078;-52
2023/05/18 00:55:06;;;;;;;3.47;1.95;;;25.90;48.00;;;;;;4976641;28;20475;-48
2023/05/18 00:57:32;;;;;;;2.53;1.83;;;26.00;47.90;;;;;;4975523;28;20026;-55
2023/05/18 00:59:59;;;;;;;3.58;2.05;;;25.90;47.90;;;;;;4974122;28;20519;-55
2023/05/18 01:02:28;;;;;;;3.45;2.03;;;25.80;47.80;;;;;;4968138;28;20396;-55
2023/05/18 01:04:54;;;;;;;4.32;2.13;;;25.90;47.80;;;;;;4972292;28;20054;-56
2023/05/18 01:07:25;;;;;;;2.35;1.92;;;26.00;47.60;;;;;;4972193;28;20528;-56
2023/05/18 01:09:54;;;;;;;2.75;2.00;;;26.00;47.80;;;;;;4972875;28;20137;-57
2023/05/18 01:12:28;;;;;;;2.40;1.73;;;26.00;48.00;;;;;;4980844;28;20338;-57
2023/05/18 01:15:07;;;;;;;2.78;1.67;;;25.90;48.10;;;;;;4976759;28;20033;-56
2023/05/18 01:18:13;;;;;;;4.38;1.77;;;26.00;47.60;;;;;;4976113;28;20081;-56
2023/05/18 01:20:58;;;;;;;3.53;2.22;;;26.10;47.60;;;;;;4979166;28;20045;-56
2023/05/18 01:23:28;;;;;;;4.70;2.00;;;26.10;47.50;;;;;;4978641;28;20519;-54
2023/05/18 01:25:53;;;;;;;2.75;1.90;;;26.00;47.60;;;;;;4973725;28;20324;-52
2023/05/18 01:28:27;;;;;;;4.10;2.17;;;25.90;47.60;;;;;;4971371;28;20443;-56
2023/05/18 01:30:54;;;;;;;3.72;2.05;;;26.00;47.60;;;;;;4968629;28;20146;-55
2023/05/18 01:33:20;;;;;;;3.50;2.20;;;26.00;47.60;;;;;;4968271;28;20218;-57
2023/05/18 01:35:46;;;;;;;2.45;1.63;;;26.10;47.70;;;;;;4974603;28;20162;-57
2023/05/18 01:38:32;;;;;;;4.40;2.10;;;26.10;47.70;;;;;;4976032;28;20038;-56
2023/05/18 01:41:10;;;;;;;2.72;2.00;;;26.00;47.60;;;;;;4975182;28;20041;-54
2023/05/18 01:43:39;;;;;;;4.45;2.28;;;26.00;47.40;;;;;;4973402;28;20022;-52
2023/05/18 01:46:19;;;;;;;2.33;1.60;;;26.10;47.20;;;;;;4970043;28;20065;-56
2023/05/18 01:48:55;;;;;;;2.35;1.70;;;26.20;47.50;;;;;;4975576;28;20053;-57
2023/05/18 01:51:20;;;;;;;;;;;26.10;47.20;;;;;;4973617;28;20030;-54
2023/05/18 01:54:01;;;;;;;2.53;1.60;;;26.00;47.30;;;;;;4973517;28;19921;-56
2023/05/18 01:56:27;;;;;;;2.28;1.88;;;26.00;47.20;;;;;;4971797;28;20492;-55
2023/05/18 01:58:53;;;;;;;3.70;2.38;;;26.20;47.50;;;;;;4969834;28;20082;-54
2023/05/18 02:01:21;;;;;;;3.78;1.88;;;26.20;47.80;;;;;;4971912;28;20089;-56
2023/05/18 02:03:46;;;;;;;3.55;1.80;;;26.20;47.20;;;;;;4974767;28;20035;-55
2023/05/18 02:06:12;;;;;;;3.15;2.00;;;26.10;47.30;;;;;;4969967;28;20038;-55
2023/05/18 02:08:38;;;;;;;2.72;2.22;;;26.00;47.30;;;;;;4973789;28;20030;-56
2023/05/18 02:11:03;;;;;;;1.90;1.60;;;25.90;47.10;;;;;;4988872;23;20609;-52
2023/05/18 02:13:29;;;;;;;3.58;1.90;;;25.80;47.30;;;;;;4995633;28;20022;-56
2023/05/18 02:15:54;;;;;;;4.25;2.10;;;25.60;47.60;;;;;;4989784;28;20022;-57
2023/05/18 02:18:20;;;;;;;3.22;2.10;;;25.50;47.80;;;;;;4988578;28;20359;-56
2023/05/18 02:20:47;;;;;;;2.50;2.03;;;25.40;48.10;;;;;;4987638;28;21324;-56
2023/05/18 02:23:13;;;;;;;3.35;1.70;;;25.20;48.20;;;;;;4989842;28;20026;-53
2023/05/18 02:25:39;;;;;;;4.43;1.77;;;25.10;48.60;;;;;;4990814;28;20053;-53
2023/05/18 02:28:05;;;;;;;3.22;1.85;;;25.00;48.60;;;;;;4975162;28;20034;-54
2023/05/18 02:30:32;;;;;;;3.22;1.92;;;25.00;48.70;;;;;;4989729;28;20511;-55
2023/05/18 02:32:57;;;;;;;3.30;2.00;;;24.90;48.90;;;;;;4994757;28;20157;-52
2023/05/18 02:35:23;;;;;;;2.88;1.48;;;25.10;48.20;;;;;;4989150;28;20420;-55
2023/05/18 02:37:48;;;;;;;2.85;1.70;;;25.20;48.40;;;;;;4991786;28;20041;-55
2023/05/18 02:40:15;;;;;;;2.33;1.50;;;25.30;48.30;;;;;;4994711;28;20046;-50
2023/05/18 02:42:41;;;;;;;2.90;1.95;;;25.50;47.90;;;;;;4990962;28;20377;-54
2023/05/18 02:45:07;;;;;;;3.03;1.63;;;25.50;48.10;;;;;;4986836;28;20127;-51
2023/05/18 02:47:33;;;;;;;3.55;2.00;;;25.50;47.90;;;;;;4988114;28;20146;-53
2023/05/18 02:49:59;;;;;;;2.80;1.60;;;25.70;47.50;;;;;;4986143;28;20039;-53
2023/05/18 02:52:24;;;;;;;3.13;1.70;;;25.70;47.30;;;;;;4989554;28;20061;-51
2023/05/18 02:54:53;;;;;;;2.63;1.70;;;25.70;47.50;;;;;;4990179;28;20066;-54
2023/05/18 02:57:20;;;;;;;2.47;1.42;;;25.70;47.30;;;;;;4989810;28;20487;-51
2023/05/18 02:59:45;;;;;;;1.80;1.48;;;25.80;47.20;;;;;;4989904;28;20148;-56
2023/05/18 03:02:13;;;;;;;2.35;1.65;;;25.90;47.30;;;;;;5000701;23;20041;-68
2023/05/18 03:04:38;;;;;;;1.90;1.40;;;25.90;47.10;;;;;;4991909;28;20065;-67
2023/05/18 03:07:06;;;;;;;3.47;1.80;;;25.80;47.10;;;;;;4998706;28;20054;-69
2023/05/18 03:09:31;;;;;;;2.00;1.40;;;25.90;47.00;;;;;;4996706;28;20455;-68
2023/05/18 03:11:57;;;;;;;2.42;1.90;;;26.00;47.20;;;;;;5000169;28;20029;-67
2023/05/18 03:14:22;;;;;;;2.72;1.50;;;26.00;47.10;;;;;;4990132;28;20075;-68
2023/05/18 03:16:52;;;;;;;2.50;1.10;;;25.90;47.00;;;;;;4991428;28;20033;-66
2023/05/18 03:19:17;;;;;;;2.95;1.80;;;25.90;46.80;;;;;;4998215;28;20403;-66
2023/05/18 03:21:43;;;;;;;2.58;1.63;;;26.00;47.00;;;;;;4987859;28;20105;-67
2023/05/18 03:24:08;;;;;;;2.25;1.70;;;26.00;46.80;;;;;;5007901;28;20401;-68
2023/05/18 03:26:34;;;;;;;2.88;1.80;;;26.00;46.80;;;;;;4997442;28;20033;-67
2023/05/18 03:29:00;;;;;;;2.72;1.50;;;25.90;46.60;;;;;;4994148;28;20795;-67
2023/05/18 03:31:26;;;;;;;2.20;1.30;;;26.00;46.70;;;;;;4995787;28;20030;-67
2023/05/18 03:33:51;;;;;;;3.05;1.58;;;26.00;46.60;;;;;;4996113;28;20652;-67
2023/05/18 03:36:17;;;;;;;2.67;1.38;;;26.10;46.60;;;;;;4994417;28;20453;-67
2023/05/18 03:38:45;;;;;;;4.45;2.17;;;26.00;46.60;;;;;;4974097;28;20023;-67
2023/05/18 03:41:11;;;;;;;1.75;1.38;;;26.00;46.80;;;;;;4992654;28;20547;-66
2023/05/18 03:43:37;;;;;;;3.17;1.30;;;26.10;46.70;;;;;;4991194;28;20026;-68
2023/05/18 03:46:02;;;;;;;3.42;1.42;;;26.10;46.70;;;;;;4991264;28;20040;-66
2023/05/18 03:48:28;;;;;;;2.28;1.30;;;26.10;46.70;;;;;;4989276;28;20065;-67
2023/05/18 03:50:54;;;;;;;3.13;1.67;;;26.00;46.50;;;;;;4993262;28;20481;-63
2023/05/18 03:53:20;;;;;;;1.95;1.20;;;26.10;46.60;;;;;;4994562;28;20493;-66
2023/05/18 03:55:48;;;;;;;2.75;1.45;;;26.30;46.40;;;;;;4995087;28;20076;-66
2023/05/18 03:58:14;;;;;;;3.90;1.63;;;26.20;46.40;;;;;;4994871;28;20444;-66
2023/05/18 04:00:41;;;;;;;2.10;1.48;;;26.20;46.30;;;;;;4993523;28;20061;-66
2023/05/18 04:03:13;;;;;;;3.20;1.50;;;26.10;46.20;;;;;;4991622;28;20054;-66
2023/05/18 04:05:45;;;;;;;4.13;1.98;;;26.20;46.20;;;;;;4988036;28;20100;-67
2023/05/18 04:10:44;;;;;;;3.65;1.35;;;26.30;46.40;;;;;;4981930;23;20041;-53
2023/05/18 04:13:10;;;;;;;2.78;1.13;;;26.20;46.20;;;;;;4981480;28;20074;-52
2023/05/18 04:15:35;;;;;;;1.90;1.10;;;26.20;46.30;;;;;;4956401;28;20411;-55
2023/05/18 04:18:01;;;;;;;2.40;1.23;;;26.30;46.20;;;;;;4959916;28;20430;-51
2023/05/18 04:20:28;;;;;;;2.30;1.45;;;26.30;46.00;;;;;;4953890;28;20063;-53
2023/05/18 04:22:56;;;;;;;3.20;1.77;;;26.30;46.20;;;;;;4957378;28;20586;-55
2023/05/18 04:25:26;;;;;;;2.55;1.30;;;26.20;46.10;;;;;;4954737;28;20042;-59
2023/05/18 04:27:53;;;;;;;2.85;1.40;;;26.20;46.10;;;;;;4957811;28;20093;-52
2023/05/18 04:30:21;;;;;;;4.82;1.38;;;26.30;45.90;;;;;;4948225;28;20043;-57
2023/05/18 04:32:46;;;;;;;3.20;1.55;;;26.30;45.90;;;;;;4963013;28;20045;-54
2023/05/18 04:35:12;;;;;;;2.92;1.30;;;26.30;45.70;;;;;;4961464;28;20039;-49
2023/05/18 04:37:39;;;;;;;3.80;1.75;;;26.30;45.80;;;;;;4956546;28;20032;-56
2023/05/18 04:40:06;;;;;;;2.55;1.42;;;26.20;45.50;;;;;;4956899;28;20100;-52
2023/05/18 04:42:35;;;;;;;1.50;1.15;;;26.30;45.80;;;;;;4960872;28;20047;-54
2023/05/18 04:45:01;;;;;;;2.05;1.40;;;26.40;46.40;;;;;;4956227;28;20038;-55
2023/05/18 04:47:28;;;;;;;1.75;1.23;;;26.40;45.80;;;;;;4954417;28;20045;-58
2023/05/18 04:49:54;;;;;;;5.40;2.00;;;26.30;45.30;;;;;;4954989;28;20039;-51
2023/05/18 04:52:20;;;;;;;2.95;1.27;;;26.30;45.50;;;;;;4953345;28;20419;-51
2023/05/18 04:54:46;;;;;;;2.45;1.20;;;26.40;45.50;;;;;;4955245;28;20042;-51
2023/05/18 04:57:12;;;;;;;2.22;1.20;;;26.50;45.60;;;;;;4954574;28;20178;-53
2023/05/18 04:59:38;;;;;;;2.60;1.20;;;26.50;45.50;;;;;;4959670;28;20027;-55
2023/05/18 05:02:04;;;;;;;3.97;1.40;;;26.40;45.50;;;;;;4961681;28;20023;-53
2023/05/18 05:04:30;;;;;;;2.63;1.40;;;26.30;45.60;;;;;;4961502;28;20038;-54
2023/05/18 05:06:55;;;;;;;2.83;1.20;;;26.50;45.80;;;;;;4960508;28;20475;-54
2023/05/18 05:09:21;;;;;;;2.28;1.30;;;26.50;45.50;;;;;;4958063;28;20107;-52
2023/05/18 05:11:46;;;;;;;2.35;1.27;;;26.50;45.50;;;;;;4956090;28;20030;-50
2023/05/18 05:14:12;;;;;;;1.48;1.20;;;26.50;45.60;;;;;;4960026;28;20043;-55
2023/05/18 05:16:38;;;;;;;3.42;1.38;;;26.40;45.60;;;;;;4954486;28;20037;-49
2023/05/18 05:19:03;;;;;;;1.65;1.02;;;26.50;45.30;;;;;;4956585;28;20170;-52
2023/05/18 05:21:30;;;;;;;2.85;1.20;;;26.60;45.40;;;;;;4951687;28;20482;-52
2023/05/18 05:23:55;;;;;;;1.85;1.13;;;26.60;45.60;;;;;;4957642;28;20431;-50
2023/05/18 05:26:21;;;;;;;1.55;1.05;;;26.60;45.40;;;;;;4948242;28;20103;-54
2023/05/18 05:28:46;;;;;;;3.97;1.73;;;26.50;45.50;;;;;;4957341;28;20873;-51
2023/05/18 05:31:12;;;;;;;1.80;1.20;;;26.60;45.40;;;;;;4960105;28;20046;-54
2023/05/18 05:33:38;;;;;;;2.47;1.20;;;26.60;45.30;;;;;;4959087;28;20043;-55
2023/05/18 05:36:04;;;;;;;1.60;0.90;;;26.70;45.70;;;;;;4962637;28;20096;-51
2023/05/18 05:38:30;;;;;;;2.20;1.13;;;26.60;45.50;;;;;;4962603;28;20406;-51
2023/05/18 05:40:56;;;;;;;3.03;1.50;;;26.60;45.60;;;;;;4959440;28;20096;-55
2023/05/18 05:43:21;;;;;;;2.35;1.50;;;26.60;45.50;;;;;;4957802;28;20039;-52
2023/05/18 05:45:47;;;;;;;3.05;1.17;;;26.70;45.50;;;;;;4960014;28;20131;-49
2023/05/18 05:48:12;;;;;;;2.50;1.20;;;26.70;45.60;;;;;;4958080;28;20039;-56
2023/05/18 05:50:38;;;;;;;1.80;1.02;;;26.60;45.60;;;;;;4957292;28;20192;-53
2023/05/18 05:53:03;;;;;;;2.35;1.17;;;26.50;45.70;;;;;;4958878;28;20038;-52
2023/05/18 05:55:29;;;;;;;2.97;1.20;;;26.60;45.60;;;;;;4953711;28;20146;-58
2023/05/18 05:57:55;;;;;;;1.25;1.00;;;26.70;46.00;;;;;;4963309;28;20042;-50
2023/05/18 06:00:22;;;;;;;2.47;1.15;;;26.60;45.70;;;;;;4963444;28;20211;-49
2023/05/18 06:02:47;;;;;;;1.35;1.05;;;26.60;45.70;;;;;;4960702;28;20485;-51
2023/05/18 06:05:13;;;;;;;3.53;1.88;;;26.60;45.70;;;;;;4962196;28;20023;-54
2023/05/18 06:07:38;;;;;;;2.38;1.23;;;26.60;45.50;;;;;;4963410;28;20038;-49
2023/05/18 06:10:04;;;;;;;2.13;0.93;;;26.70;45.70;;;;;;4959722;28;20519;-50
2023/05/18 06:12:30;;;;;;;2.92;1.33;;;26.70;45.60;;;;;;4960012;28;20081;-49
2023/05/18 06:14:56;;;;;;;2.97;1.20;;;26.60;45.60;;;;;;4959522;28;20371;-54
2023/05/18 06:17:26;;;;;;;1.90;1.20;;;26.60;45.90;;;;;;4955538;28;20519;-54
2023/05/18 06:19:52;;;;;;;2.05;1.20;;;26.60;45.70;;;;;;4958937;28;20029;-51
2023/05/18 06:22:18;;;;;;;1.80;1.10;;;26.70;45.70;;;;;;4956724;28;20769;-52
2023/05/18 06:24:43;;;;;;;2.47;1.40;;;26.70;46.40;;;;;;4957625;28;20431;-52
2023/05/18 06:27:09;;;;;;;1.88;1.15;;;26.70;45.80;;;;;;4962043;28;20066;-49
2023/05/18 06:29:34;;;;;;;3.42;1.27;;;26.60;45.80;;;;;;4960456;28;20623;-50
2023/05/18 06:32:00;;;;;;;3.00;1.20;;;26.70;45.80;;;;;;4961722;28;20983;-54
2023/05/18 06:34:26;;;;;;;2.80;1.20;;;26.70;45.80;;;;;;4965810;28;20038;-51
2023/05/18 06:36:51;;;;;;;1.92;1.10;;;26.70;45.80;;;;;;4964616;28;20268;-51
2023/05/18 06:39:16;;;;;;;3.85;1.35;;;26.60;45.80;;;;;;4959793;28;20035;-55
2023/05/18 06:41:44;;;;;;;2.65;1.17;;;26.50;46.00;;;;;;4959856;28;20188;-56
2023/05/18 06:44:10;;;;;;;4.25;1.42;;;26.60;45.90;;;;;;4961473;28;20090;-52
2023/05/18 06:46:35;;;;;;;4.35;1.10;;;26.60;45.50;;;;;;4956539;28;20028;-51
2023/05/18 06:49:01;;;;;;;4.68;1.60;;;26.60;46.00;;;;;;4954269;28;20517;-54
2023/05/18 06:51:26;;;;;;;4.45;1.40;;;26.40;45.70;;;;;;4953275;28;20121;-55
2023/05/18 06:53:52;;;;;;;4.43;1.50;;;26.30;45.80;;;;;;4955821;28;20283;-49
2023/05/18 06:56:17;;;;;;;16.92;3.90;;;26.30;46.10;;;;;;4962957;28;20133;-53
2023/05/18 06:58:43;;;;;;;6.13;2.88;;;26.40;45.80;;;;;;4960819;28;20050;-53
2023/05/18 07:01:09;;;;;;;10.60;4.80;;;26.40;45.90;;;;;;4964223;28;20085;-54
2023/05/18 07:03:36;;;;;;;12.57;3.75;;;26.40;46.20;;;;;;4961504;28;20106;-55
2023/05/18 07:06:03;;;;;;;9.27;5.28;;;26.30;46.70;;;;;;4959619;28;20065;-52
2023/05/18 07:08:29;;;;;;;10.02;4.57;;;26.10;46.90;;;;;;4961346;28;20514;-53
2023/05/18 07:10:56;;;;;;;8.75;4.25;;;26.20;47.10;;;;;;4953134;28;20039;-51
2023/05/18 07:13:22;;;;;;;8.48;4.68;;;26.40;46.70;;;;;;4955982;28;20063;-53
2023/05/18 07:15:48;;;;;;;7.68;4.13;;;26.40;46.50;;;;;;4955351;28;20121;-52
2023/05/18 07:18:13;;;;;;;8.55;4.70;;;26.30;46.70;;;;;;4955008;28;20050;-55
2023/05/18 07:20:39;;;;;;;7.32;3.72;;;26.30;47.10;;;;;;4955265;28;20038;-55
2023/05/18 07:23:04;;;;;;;10.00;5.35;;;26.20;47.00;;;;;;4956986;28;20039;-54
2023/05/18 07:25:30;;;;;;;6.60;3.72;;;26.10;47.50;;;;;;4964442;28;20049;-51
2023/05/18 07:27:56;;;;;;;9.25;4.70;;;26.00;47.60;;;;;;4959855;28;20395;-51
2023/05/18 07:30:21;;;;;;;7.82;4.38;;;26.10;47.40;;;;;;4962736;28;20522;-53
2023/05/18 07:32:47;;;;;;;7.88;4.13;;;26.30;47.00;;;;;;4958340;28;20039;-55
2023/05/18 07:35:12;;;;;;;9.65;4.15;;;26.30;47.10;;;;;;4953770;28;20120;-50
2023/05/18 07:37:38;;;;;;;6.05;3.70;;;26.30;47.10;;;;;;4960298;28;20031;-55
2023/05/18 07:40:04;;;;;;;4.47;3.85;;;26.10;47.30;;;;;;4956794;28;20706;-53
2023/05/18 07:42:32;;;;;;;5.35;4.18;;;26.00;47.40;;;;;;4957676;28;20353;-52
2023/05/18 07:44:58;;;;;;;7.35;4.35;;;26.00;47.80;;;;;;4955098;28;20038;-55
2023/05/18 07:47:23;;;;;;;5.28;3.47;;;26.00;47.90;;;;;;4957503;28;20031;-57
2023/05/18 07:49:49;;;;;;;9.57;3.95;;;26.20;47.40;;;;;;4953510;28;20116;-50
2023/05/18 07:52:14;;;;;;;9.25;3.97;;;26.20;47.20;;;;;;4966309;28;20030;-55
2023/05/18 07:54:40;;;;;;;5.10;3.50;;;26.20;47.30;;;;;;4959485;28;20097;-51
2023/05/18 07:57:05;;;;;;;9.25;5.50;;;26.10;47.20;;;;;;4961381;28;20027;-54
2023/05/18 07:59:31;;;;;;;12.68;7.03;;;26.10;47.80;;;;;;4957962;28;20357;-57
2023/05/18 08:01:58;;;;;;;15.05;7.28;;;26.00;48.20;;;;;;4957719;28;20100;-53
2023/05/18 08:04:24;;;;;;;12.95;6.47;;;25.90;48.20;;;;;;4960085;28;20043;-57
2023/05/18 08:06:54;;;;;;;19.20;6.50;;;25.90;48.50;;;;;;4959139;28;20428;-55
2023/05/18 08:09:23;;;;;;;16.85;7.45;;;26.10;48.00;;;;;;4958652;28;20666;-54
2023/05/18 08:11:50;;;;;;;18.98;7.35;;;26.20;47.70;;;;;;4952705;28;20030;-51
2023/05/18 08:14:16;;;;;;;16.83;6.85;;;26.20;47.90;;;;;;4954494;28;20042;-53
2023/05/18 08:16:41;;;;;;;16.58;7.22;;;26.10;48.00;;;;;;4959042;28;20031;-55
2023/05/18 08:19:07;;;;;;;13.73;6.55;;;26.00;48.40;;;;;;4956836;28;20555;-51
2023/05/18 08:21:33;;;;;;;15.90;6.78;;;25.90;48.40;;;;;;4960104;28;20081;-56
2023/05/18 08:23:58;;;;;;;12.77;7.03;;;25.70;48.50;;;;;;4961288;28;20108;-53
2023/05/18 08:26:25;;;;;;;13.95;6.70;;;25.60;48.30;;;;;;4960333;28;20543;-52
2023/05/18 08:28:51;;;;;;;15.25;6.20;;;25.50;48.80;;;;;;4960088;28;20027;-53
2023/05/18 08:31:17;;;;;;;13.40;6.18;;;25.50;48.50;;;;;;4958917;28;20089;-55
2023/05/18 08:33:42;;;;;;;14.05;5.85;;;25.30;49.00;;;;;;4960924;28;20034;-52
2023/05/18 08:36:08;;;;;;;18.00;6.43;;;25.20;49.30;;;;;;4959474;28;20145;-50
2023/05/18 08:38:34;;;;;;;13.27;5.70;;;25.30;49.00;;;;;;4959654;28;20037;-49
2023/05/18 08:41:21;;;;;;;12.07;4.68;;;25.80;48.20;;;;;;4953433;28;20158;-53
2023/05/18 08:43:52;;;;;;;11.68;4.50;;;26.00;47.80;;;;;;4958858;28;21342;-50
2023/05/18 08:46:33;;;;;;;7.05;4.20;;;25.90;47.60;;;;;;4957558;28;20105;-52
2023/05/18 08:49:00;;;;;;;10.15;4.32;;;25.80;47.60;;;;;;4957012;28;20082;-49
2023/05/18 08:51:31;;;;;;;7.63;4.38;;;25.80;48.00;;;;;;4961023;28;20466;-52
2023/05/18 08:53:58;;;;;;;9.10;4.03;;;25.70;48.00;;;;;;4958352;28;20506;-51
2023/05/18 08:56:25;;;;;;;12.65;5.00;;;25.90;47.90;;;;;;4960150;28;20572;-55
2023/05/18 08:58:54;;;;;;;12.93;4.20;;;26.10;47.60;;;;;;4961938;28;20563;-56
2023/05/18 09:01:21;;;;;;;11.43;4.25;;;26.10;47.60;;;;;;4953933;28;20295;-51
2023/05/18 09:03:50;;;;;;;9.93;3.80;;;26.00;47.50;;;;;;4960827;28;20038;-54
2023/05/18 09:06:18;;;;;;;8.95;4.45;;;25.90;47.60;;;;;;4959208;28;20039;-56
2023/05/18 09:08:44;;;;;;;6.75;3.90;;;25.70;48.00;;;;;;4958558;28;20121;-49
2023/05/18 09:11:12;;;;;;;8.13;3.33;;;25.70;48.30;;;;;;4951090;28;20519;-52
2023/05/18 09:13:37;;;;;;;9.88;3.97;;;25.90;47.80;;;;;;4958190;28;20035;-54
2023/05/18 09:16:03;;;;;;;8.50;3.38;;;26.00;48.20;;;;;;4956311;28;20057;-51
2023/05/18 09:18:28;;;;;;;8.30;3.10;;;26.00;47.30;;;;;;4959292;28;20097;-52
2023/05/18 09:20:54;;;;;;;8.27;3.08;;;26.00;47.50;;;;;;4956896;28;20512;-59
2023/05/18 09:23:20;;;;;;;6.85;2.40;;;25.90;47.40;;;;;;4960869;28;20038;-50
2023/05/18 09:25:48;;;;;;;5.93;3.13;;;25.80;47.80;;;;;;4959803;28;20039;-54
2023/05/18 09:28:25;;;;;;;5.68;2.90;;;25.80;47.80;;;;;;4964892;28;20073;-49
2023/05/18 09:30:52;;;;;;;10.25;2.70;;;26.00;47.60;;;;;;4952778;28;20485;-53
2023/05/18 09:33:20;;;;;;;6.85;2.28;;;26.00;47.60;;;;;;4954978;28;20039;-48
2023/05/18 09:35:46;;;;;;;5.50;2.28;;;26.00;47.20;;;;;;4957600;28;20105;-54
2023/05/18 09:38:16;;;;;;;6.35;3.30;;;25.90;47.50;;;;;;4954074;28;20500;-55
2023/05/18 09:40:45;;;;;;;6.72;2.58;;;25.90;47.60;;;;;;4950672;28;20050;-51
2023/05/18 09:43:10;;;;;;;6.75;2.78;;;25.70;47.90;;;;;;4957061;28;20691;-53
2023/05/18 09:45:42;;;;;;;6.38;2.47;;;25.70;47.70;;;;;;4953289;28;20117;-51
2023/05/18 09:48:08;;;;;;;10.48;2.83;;;25.90;47.60;;;;;;4956483;28;20145;-51
2023/05/18 09:50:36;;;;;;;4.38;2.35;;;26.00;47.40;;;;;;4953933;28;20043;-54
2023/05/18 09:53:06;;;;;;;9.10;2.92;;;25.90;47.30;;;;;;4959566;28;20085;-54
2023/05/18 09:55:31;;;;;;;5.03;2.30;;;25.80;47.90;;;;;;4963586;28;20041;-52
2023/05/18 09:57:57;;;;;;;6.88;2.58;;;25.70;47.70;;;;;;4955489;28;20035;-52
2023/05/18 10:00:24;;;;;;;8.80;2.50;;;25.90;47.20;;;;;;4956399;28;20035;-55
2023/05/18 10:02:51;;;;;;;7.47;2.05;;;26.00;47.40;;;;;;4956160;28;20069;-54
2023/05/18 10:05:32;;;;;;;8.15;2.38;;;25.90;47.40;;;;;;4955034;28;20305;-49
2023/05/18 10:07:58;;;;;;;5.88;2.42;;;25.80;47.50;;;;;;4953523;28;20031;-51
2023/05/18 10:10:30;;;;;;;7.55;2.70;;;25.90;47.60;;;;;;4950076;28;20125;-52
2023/05/18 10:12:59;;;;;;;4.50;2.33;;;26.00;47.00;;;;;;4953420;28;20509;-57
2023/05/18 10:15:25;;;;;;;5.50;3.03;;;26.00;47.20;;;;;;4957526;28;20042;-54
2023/05/18 10:17:56;;;;;;;6.30;2.40;;;26.00;47.50;;;;;;4954085;28;20039;-54
2023/05/18 10:20:23;;;;;;;6.30;2.92;;;25.80;47.40;;;;;;4957390;28;20114;-55
2023/05/18 10:22:49;;;;;;;4.38;2.22;;;25.80;47.30;;;;;;4961034;28;20046;-52
2023/05/18 10:25:24;;;;;;;5.82;2.88;;;26.00;46.70;;;;;;4965625;28;20043;-55
2023/05/18 10:27:55;;;;;;;4.18;2.42;;;26.10;46.70;;;;;;4958496;28;20396;-51
2023/05/18 10:30:21;;;;;;;3.58;2.03;;;26.00;46.60;;;;;;4956129;28;20042;-55
2023/05/18 10:32:48;;;;;;;5.65;2.22;;;25.90;47.00;;;;;;4959954;28;20977;-50
2023/05/18 10:35:14;;;;;;;6.75;2.92;;;25.80;47.00;;;;;;4961516;28;21030;-50
2023/05/18 10:37:48;;;;;;;3.30;2.13;;;25.80;47.50;;;;;;4952784;28;20312;-55
2023/05/18 10:40:15;;;;;;;5.65;2.50;;;25.90;46.90;;;;;;4960269;28;20400;-55
2023/05/18 10:42:42;;;;;;;4.90;2.47;;;26.00;46.50;;;;;;4957559;28;20058;-56
2023/05/18 10:45:09;;;;;;;6.47;2.55;;;26.10;46.60;;;;;;4959286;28;20041;-51
2023/05/18 10:47:38;;;;;;;5.07;2.33;;;26.00;46.60;;;;;;4961192;28;20038;-53
2023/05/18 10:50:04;;;;;;;7.53;2.83;;;26.00;47.10;;;;;;4959938;28;20492;-50
2023/05/18 10:52:31;;;;;;;3.92;2.55;;;25.80;47.00;;;;;;4965728;28;20034;-50
2023/05/18 10:55:00;;;;;;;4.75;2.60;;;25.70;47.60;;;;;;4960016;28;20347;-51
2023/05/18 10:57:33;;;;;;;4.47;2.65;;;25.80;47.00;;;;;;4959698;28;20053;-57
2023/05/18 10:59:59;;;;;;;3.25;2.60;;;26.00;46.60;;;;;;4960889;28;20034;-56
2023/05/18 11:02:26;;;;;;;4.00;2.65;;;26.00;46.50;;;;;;4958877;28;20047;-51
2023/05/18 11:04:53;;;;;;;4.78;3.05;;;26.00;46.40;;;;;;4961026;28;20347;-55
2023/05/18 11:07:20;;;;;;;3.63;2.63;;;26.00;46.60;;;;;;4954622;28;20076;-51
2023/05/18 11:09:48;;;;;;;2.90;2.00;;;25.90;46.70;;;;;;4959391;28;20051;-56
2023/05/18 11:12:16;;;;;;;5.32;2.70;;;25.80;47.00;;;;;;4960270;28;20361;-55
2023/05/18 11:14:50;;;;;;;4.82;2.70;;;25.70;47.10;;;;;;4960956;28;20054;-51
2023/05/18 11:17:20;;;;;;;4.72;2.80;;;26.00;46.70;;;;;;4960619;28;20243;-54
2023/05/18 11:20:05;;;;;;;3.30;2.35;;;26.00;46.30;;;;;;4960293;28;20071;-53
2023/05/18 11:22:58;;;;;;;3.85;2.67;;;26.00;46.10;;;;;;4959937;28;20058;-54
2023/05/18 11:25:27;;;;;;;3.53;2.47;;;26.00;46.50;;;;;;4959922;28;20119;-55
2023/05/18 11:27:55;;;;;;;4.10;2.90;;;25.90;47.10;;;;;;4959628;28;20041;-52
2023/05/18 11:30:45;;;;;;;6.20;2.78;;;25.80;47.20;;;;;;4956623;28;20391;-55
2023/05/18 11:33:16;;;;;;;3.65;2.78;;;25.70;47.20;;;;;;4958842;28;20026;-55
2023/05/18 11:36:02;;;;;;;5.53;3.35;;;26.00;46.80;;;;;;4962446;28;20488;-49
2023/05/18 11:38:54;;;;;;;8.35;4.90;;;26.10;46.70;;;;;;4958886;28;20475;-56
2023/05/18 11:41:26;;;;;;;12.43;8.82;;;26.00;46.80;;;;;;4960963;28;20044;-49
2023/05/18 11:44:21;;;;;;;14.55;8.55;;;26.00;47.00;;;;;;4968606;28;20035;-54
2023/05/18 11:47:03;;;;;;;16.27;9.35;;;25.90;47.30;;;;;;4956629;28;20039;-56
2023/05/18 11:49:37;;;;;;;15.20;8.88;;;25.80;47.20;;;;;;4962210;28;20035;-52
2023/05/18 11:52:05;;;;;;;18.13;11.85;;;25.90;47.20;;;;;;4956073;28;20050;-56
2023/05/18 11:54:43;;;;;;;21.52;13.27;;;26.10;46.70;;;;;;4959228;28;20031;-58
2023/05/18 11:57:09;;;;;;;21.35;14.35;;;26.20;46.50;;;;;;4958092;28;20030;-55
2023/05/18 11:59:43;;;;;;;25.50;14.80;;;26.10;46.50;;;;;;4954050;28;20772;-52
2023/05/18 12:02:11;;;;;;;31.63;17.35;;;26.10;46.90;;;;;;4954999;28;20034;-54
2023/05/18 12:04:42;;;;;;;30.85;19.50;;;25.90;47.30;;;;;;4953455;28;20039;-54
2023/05/18 12:07:07;;;;;;;37.78;24.40;;;25.80;47.70;;;;;;4956215;28;20030;-53
2023/05/18 12:09:33;;;;;;;40.88;23.52;;;25.70;48.00;;;;;;4959571;28;20031;-57
2023/05/18 12:12:00;;;;;;;40.83;24.85;;;25.50;48.30;;;;;;4955027;28;20032;-58
2023/05/18 12:14:26;;;;;;;39.40;21.83;;;25.40;48.60;;;;;;4959460;28;20034;-54
2023/05/18 12:16:53;;;;;;;38.83;22.80;;;25.30;48.60;;;;;;4959794;28;20055;-52
2023/05/18 12:19:18;;;;;;;37.22;21.58;;;25.20;49.10;;;;;;4962870;28;20031;-49
2023/05/18 12:21:44;;;;;;;32.97;19.80;;;25.60;48.30;;;;;;4960041;28;20031;-52
2023/05/18 12:24:10;;;;;;;34.95;20.60;;;25.90;47.40;;;;;;4957250;28;20034;-52
2023/05/18 12:26:37;;;;;;;33.03;18.52;;;26.00;47.30;;;;;;4954255;28;20523;-54
2023/05/18 12:29:02;;;;;;;33.25;18.45;;;25.90;47.30;;;;;;4956605;28;20459;-52
2023/05/18 12:31:28;;;;;;;28.95;17.60;;;25.80;47.50;;;;;;4959127;28;20089;-52
2023/05/18 12:33:54;;;;;;;25.38;15.90;;;25.80;47.50;;;;;;4957520;28;20051;-55
2023/05/18 12:36:21;;;;;;;29.92;16.52;;;26.00;47.20;;;;;;4946246;28;20594;-56
2023/05/18 12:38:55;;;;;;;28.15;14.93;;;26.00;47.10;;;;;;4947900;28;20043;-55
2023/05/18 12:41:27;;;;;;;30.55;15.93;;;25.90;47.20;;;;;;4951076;28;20050;-52
2023/05/18 12:43:54;;;;;;;25.95;14.35;;;25.90;47.80;;;;;;4951185;28;20543;-52
2023/05/18 12:46:24;;;;;;;25.48;13.45;;;25.90;47.70;;;;;;4957781;28;20385;-55
2023/05/18 12:48:57;;;;;;;29.40;13.13;;;26.10;47.10;;;;;;4953920;28;20039;-50
2023/05/18 12:51:23;;;;;;;22.95;12.70;;;26.00;47.30;;;;;;4954641;28;20049;-55